createdAt,value
2022-07-29T00:01:53.716Z,1.00
2022-07-29T00:04:21.502Z,1.10
2022-07-29T00:06:49.018Z,1.30
2022-07-29T00:09:15.997Z,1.20
2022-07-29T00:11:43.338Z,0.97
2022-07-29T00:14:10.705Z,1.17
2022-07-29T00:16:37.946Z,1.27
2022-07-29T00:19:06.048Z,1.10
2022-07-29T00:21:35.049Z,1.20
2022-07-29T00:24:02.012Z,1.00
2022-07-29T00:26:32.630Z,1.30
2022-07-29T00:29:31.948Z,1.30
2022-07-29T00:31:47.965Z,1.00
2022-07-29T00:34:33.713Z,1.30
2022-07-29T00:37:00.973Z,1.20
2022-07-29T00:39:28.027Z,1.30
2022-07-29T00:41:55.868Z,1.03
2022-07-29T00:44:23.053Z,1.20
2022-07-29T00:46:50.278Z,1.37
2022-07-29T00:49:17.475Z,1.10
2022-07-29T00:51:44.412Z,1.20
2022-07-29T00:54:11.261Z,1.20
2022-07-29T00:56:38.791Z,1.10
2022-07-29T00:59:05.826Z,1.30
2022-07-29T01:01:33.056Z,1.33
2022-07-29T01:04:00.477Z,1.20
2022-07-29T01:06:28.365Z,1.20
2022-07-29T01:08:55.552Z,1.40
2022-07-29T01:11:25.110Z,1.20
2022-07-29T01:13:53.848Z,1.23
2022-07-29T01:16:35.063Z,1.33
2022-07-29T01:19:14.145Z,1.47
2022-07-29T01:21:50.074Z,1.17
2022-07-29T01:25:07.823Z,1.37
2022-07-29T01:27:48.850Z,1.30
2022-07-29T01:30:16.240Z,1.27
2022-07-29T01:32:47.389Z,1.40
2022-07-29T01:35:26.128Z,1.37
2022-07-29T01:38:06.482Z,1.40
2022-07-29T01:40:46.019Z,1.20
2022-07-29T01:43:17.447Z,1.27
2022-07-29T01:46:16.054Z,1.33
2022-07-29T01:48:45.615Z,1.07
2022-07-29T01:51:22.253Z,1.30
2022-07-29T01:53:56.200Z,1.30
2022-07-29T01:56:25.454Z,1.30
2022-07-29T01:58:54.780Z,2.17
2022-07-29T02:01:25.356Z,1.40
2022-07-29T02:03:56.112Z,1.37
2022-07-29T02:06:24.697Z,1.30
2022-07-29T02:08:54.094Z,1.70
2022-07-29T02:11:21.168Z,1.37
2022-07-29T02:13:49.766Z,1.27
2022-07-29T02:16:20.144Z,1.07
2022-07-29T02:18:49.074Z,1.43
2022-07-29T02:21:21.560Z,1.50
2022-07-29T02:23:51.151Z,1.40
2022-07-29T02:26:20.596Z,0.93
2022-07-29T02:28:49.073Z,1.10
2022-07-29T02:31:19.520Z,1.53
2022-07-29T02:33:48.238Z,1.30
2022-07-29T02:36:17.233Z,1.50
2022-07-29T02:38:52.641Z,1.63
2022-07-29T02:41:47.888Z,1.50
2022-07-29T02:44:20.967Z,1.33
2022-07-29T02:46:53.222Z,1.57
2022-07-29T02:49:53.635Z,1.60
2022-07-29T02:52:48.557Z,1.60
2022-07-29T02:55:24.047Z,1.43
2022-07-29T02:58:21.333Z,1.40
2022-07-29T03:00:49.891Z,1.80
2022-07-29T03:03:19.403Z,1.37
2022-07-29T03:05:49.419Z,1.30
2022-07-29T03:08:16.950Z,1.70
2022-07-29T03:10:46.774Z,1.60
2022-07-29T03:13:14.641Z,1.70
2022-07-29T03:15:45.211Z,1.37
2022-07-29T03:18:13.140Z,1.70
2022-07-29T03:20:40.831Z,1.60
2022-07-29T03:23:09.213Z,1.70
2022-07-29T03:25:36.224Z,1.70
2022-07-29T03:28:03.275Z,1.50
2022-07-29T03:30:31.715Z,1.40
2022-07-29T03:32:59.157Z,1.57
2022-07-29T03:35:30.897Z,1.63
2022-07-29T03:37:57.854Z,1.40
2022-07-29T03:40:32.799Z,1.77
2022-07-29T03:43:01.730Z,2.10
2022-07-29T03:45:31.489Z,1.60
2022-07-29T03:48:03.571Z,1.70
2022-07-29T03:50:33.595Z,1.57
2022-07-29T03:53:02.503Z,1.47
2022-07-29T03:55:33.766Z,1.43
2022-07-29T03:58:03.230Z,1.70
2022-07-29T04:00:31.397Z,1.80
2022-07-29T04:02:58.962Z,1.40
2022-07-29T04:05:25.985Z,1.60
2022-07-29T04:07:52.913Z,1.33
2022-07-29T04:10:30.612Z,1.97
2022-07-29T04:12:59.324Z,2.00
2022-07-29T04:15:26.485Z,1.93
2022-07-29T04:17:58.330Z,1.90
2022-07-29T04:20:25.237Z,2.10
2022-07-29T04:22:52.416Z,1.90
2022-07-29T04:25:19.348Z,2.20
2022-07-29T04:28:01.251Z,2.00
2022-07-29T04:30:28.915Z,1.77
2022-07-29T04:32:56.143Z,1.87
2022-07-29T04:35:23.455Z,2.00
2022-07-29T04:37:50.642Z,1.90
2022-07-29T04:40:17.878Z,2.20
2022-07-29T04:42:46.339Z,1.87
2022-07-29T04:45:13.725Z,1.80
2022-07-29T04:47:42.099Z,2.00
2022-07-29T04:50:13.245Z,1.73
2022-07-29T04:52:40.364Z,1.90
2022-07-29T04:55:07.755Z,2.00
2022-07-29T04:57:34.736Z,2.17
2022-07-29T05:00:02.164Z,2.00
2022-07-29T05:02:29.220Z,2.20
2022-07-29T05:04:56.322Z,1.73
2022-07-29T05:07:23.321Z,1.90
2022-07-29T05:09:50.600Z,2.10
2022-07-29T05:12:17.547Z,2.60
2022-07-29T05:14:44.776Z,2.17
2022-07-29T05:17:11.657Z,2.40
2022-07-29T05:19:39.343Z,2.00
2022-07-29T05:22:06.920Z,2.27
2022-07-29T05:24:33.804Z,1.77
2022-07-29T05:27:00.906Z,2.53
2022-07-29T05:29:42.983Z,2.60
2022-07-29T05:32:17.938Z,2.20
2022-07-29T05:34:50.379Z,2.20
2022-07-29T05:37:21.951Z,3.20
2022-07-29T05:39:56.190Z,2.50
2022-07-29T05:42:24.370Z,2.53
2022-07-29T05:44:52.003Z,2.00
2022-07-29T05:47:22.277Z,2.63
2022-07-29T05:49:49.905Z,2.63
2022-07-29T05:52:16.966Z,2.37
2022-07-29T05:54:44.525Z,2.57
2022-07-29T05:57:19.185Z,2.70
2022-07-29T05:59:46.860Z,2.93
2022-07-29T06:02:13.984Z,2.67
2022-07-29T06:04:41.056Z,2.93
2022-07-29T06:07:08.412Z,2.87
2022-07-29T06:09:36.547Z,2.87
2022-07-29T06:12:06.756Z,2.50
2022-07-29T06:14:33.832Z,2.53
2022-07-29T06:17:00.897Z,2.83
2022-07-29T06:19:27.892Z,2.90
2022-07-29T06:21:54.795Z,2.70
2022-07-29T06:24:21.734Z,2.90
2022-07-29T06:26:49.074Z,3.07
2022-07-29T06:29:16.206Z,2.97
2022-07-29T06:31:43.336Z,3.97
2022-07-29T06:34:10.566Z,3.17
2022-07-29T06:36:39.808Z,3.13
2022-07-29T06:39:09.200Z,3.40
2022-07-29T06:41:36.695Z,2.73
2022-07-29T06:44:05.714Z,3.17
2022-07-29T06:46:33.326Z,3.40
2022-07-29T06:49:02.559Z,3.03
2022-07-29T06:51:31.061Z,3.03
2022-07-29T06:54:02.644Z,3.27
2022-07-29T06:56:39.478Z,3.10
2022-07-29T06:59:08.831Z,3.30
2022-07-29T07:01:38.037Z,3.00
2022-07-29T07:04:05.439Z,3.83
2022-07-29T07:06:32.447Z,3.33
2022-07-29T07:08:59.515Z,3.10
2022-07-29T07:11:26.721Z,3.70
2022-07-29T07:13:53.647Z,3.67
2022-07-29T07:16:20.875Z,3.13
2022-07-29T07:18:48.092Z,2.93
2022-07-29T07:21:19.003Z,3.40
2022-07-29T07:23:46.924Z,3.43
2022-07-29T07:26:14.000Z,2.57
2022-07-29T07:28:41.073Z,3.30
2022-07-29T07:31:08.349Z,3.20
2022-07-29T07:33:35.307Z,3.27
2022-07-29T07:36:02.291Z,3.63
2022-07-29T07:38:29.189Z,3.17
2022-07-29T07:40:56.284Z,3.27
2022-07-29T07:43:23.679Z,3.30
2022-07-29T07:45:50.747Z,3.53
2022-07-29T07:48:17.809Z,3.10
2022-07-29T07:50:45.010Z,3.40
2022-07-29T07:53:12.279Z,3.50
2022-07-29T07:58:30.999Z,3.43
2022-07-29T08:00:58.009Z,3.47
2022-07-29T08:03:25.124Z,3.17
2022-07-29T08:05:53.023Z,2.80
2022-07-29T08:08:20.493Z,2.90
2022-07-29T08:10:53.631Z,2.97
2022-07-29T08:13:22.488Z,2.80
2022-07-29T08:15:58.876Z,2.93
2022-07-29T08:18:30.308Z,2.50
2022-07-29T08:20:58.148Z,2.90
2022-07-29T08:23:32.866Z,2.40
2022-07-29T08:26:15.166Z,2.40
2022-07-29T08:28:47.347Z,2.27
2022-07-29T08:31:15.385Z,2.80
2022-07-29T08:33:42.795Z,2.67
2022-07-29T08:36:10.046Z,2.55
2022-07-29T08:38:36.921Z,1.90
2022-07-29T08:41:04.167Z,2.30
2022-07-29T08:43:31.385Z,2.87
2022-07-29T08:45:58.484Z,2.20
2022-07-29T08:48:26.209Z,2.77
2022-07-29T08:51:00.649Z,2.30
2022-07-29T08:53:29.717Z,2.70
2022-07-29T08:55:59.868Z,2.40
2022-07-29T08:58:28.660Z,2.60
2022-07-29T09:00:57.918Z,2.47
2022-07-29T09:03:28.415Z,2.37
2022-07-29T09:05:55.808Z,1.93
2022-07-29T09:08:23.933Z,2.57
2022-07-29T09:10:52.255Z,1.87
2022-07-29T09:13:24.380Z,2.03
2022-07-29T09:15:51.328Z,1.77
2022-07-29T09:18:44.490Z,2.07
2022-07-29T09:21:32.713Z,1.80
2022-07-29T09:24:11.763Z,2.17
2022-07-29T09:26:47.324Z,1.77
2022-07-29T09:29:18.250Z,1.40
2022-07-29T09:31:47.569Z,1.70
2022-07-29T09:34:23.086Z,2.40
2022-07-29T09:36:52.601Z,1.90
2022-07-29T09:39:45.334Z,2.13
2022-07-29T09:42:14.125Z,1.50
2022-07-29T09:44:49.360Z,1.47
2022-07-29T09:47:19.079Z,1.50
2022-07-29T09:50:00.696Z,1.77
2022-07-29T09:52:31.271Z,1.67
2022-07-29T09:55:09.892Z,1.80
2022-07-29T09:57:40.881Z,2.50
2022-07-29T10:00:12.466Z,2.00
2022-07-29T10:02:43.447Z,1.70
2022-07-29T10:05:27.100Z,1.80
2022-07-29T10:08:04.069Z,1.80
2022-07-29T10:10:34.844Z,1.97
2022-07-29T10:13:08.798Z,1.73
2022-07-29T10:15:41.968Z,1.70
2022-07-29T10:18:09.810Z,1.93
2022-07-29T10:20:37.524Z,2.33
2022-07-29T10:23:05.650Z,2.10
2022-07-29T10:25:32.822Z,1.40
2022-07-29T10:27:59.750Z,1.80
2022-07-29T10:30:27.483Z,1.60
2022-07-29T10:33:22.654Z,1.90
2022-07-29T10:36:17.477Z,2.27
2022-07-29T10:39:11.965Z,1.80
2022-07-29T10:42:00.252Z,2.00
2022-07-29T10:44:28.346Z,2.07
2022-07-29T10:46:56.157Z,1.80
2022-07-29T10:49:27.952Z,1.97
2022-07-29T10:52:10.346Z,1.60
2022-07-29T10:54:37.843Z,2.10
2022-07-29T10:57:16.361Z,2.20
2022-07-29T10:59:47.612Z,2.00
2022-07-29T11:02:42.005Z,2.10
2022-07-29T11:05:20.557Z,1.80
2022-07-29T11:08:20.044Z,1.90
2022-07-29T11:10:51.803Z,2.17
2022-07-29T11:13:43.724Z,1.60
2022-07-29T11:16:11.303Z,3.10
2022-07-29T11:19:13.782Z,1.90
2022-07-29T11:21:54.203Z,1.90
2022-07-29T11:24:32.045Z,2.07
2022-07-29T11:27:14.324Z,1.60
2022-07-29T11:29:57.373Z,1.60
2022-07-29T11:32:35.992Z,1.60
2022-07-29T11:35:37.017Z,2.10
2022-07-29T11:38:27.883Z,2.13
2022-07-29T11:41:25.180Z,2.20
2022-07-29T11:44:00.723Z,2.00
2022-07-29T11:46:50.103Z,1.73
2022-07-29T11:49:32.352Z,1.97
2022-07-29T11:52:02.922Z,2.23
2022-07-29T11:54:57.129Z,2.40
2022-07-29T11:57:22.759Z,2.53
2022-07-29T12:00:10.036Z,1.77
2022-07-29T12:02:48.250Z,1.97
2022-07-29T12:05:24.199Z,2.00
2022-07-29T12:08:23.571Z,1.67
2022-07-29T12:10:51.791Z,1.70
2022-07-29T12:13:22.936Z,2.13
2022-07-29T12:16:05.543Z,1.70
2022-07-29T12:18:33.265Z,1.77
2022-07-29T12:21:05.383Z,1.73
2022-07-29T12:23:35.444Z,2.00
2022-07-29T12:26:07.355Z,2.03
2022-07-29T12:28:40.770Z,1.50
2022-07-29T12:31:15.046Z,1.47
2022-07-29T12:34:02.575Z,1.73
2022-07-29T12:36:29.505Z,1.40
2022-07-29T12:38:56.325Z,1.23
2022-07-29T12:41:23.216Z,1.70
2022-07-29T12:43:55.397Z,1.40
2022-07-29T12:46:22.547Z,1.60
2022-07-29T12:48:57.450Z,1.63
2022-07-29T12:51:32.065Z,1.20
2022-07-29T12:54:11.698Z,1.35
2022-07-29T12:56:43.980Z,1.55
2022-07-29T12:59:19.243Z,1.17
2022-07-29T13:01:48.983Z,1.20
2022-07-29T13:04:34.201Z,1.80
2022-07-29T13:07:04.868Z,1.30
2022-07-29T13:09:46.480Z,1.60
2022-07-29T13:12:15.035Z,1.48
2022-07-29T13:14:44.549Z,1.42
2022-07-29T13:17:21.660Z,1.63
2022-07-29T13:19:50.731Z,1.60
2022-07-29T13:22:23.595Z,1.52
2022-07-29T13:24:54.550Z,1.38
2022-07-29T13:27:24.165Z,1.47
2022-07-29T13:29:54.240Z,1.37
2022-07-29T13:32:28.590Z,1.58
2022-07-29T13:34:56.807Z,1.60
2022-07-29T13:37:24.022Z,1.80
2022-07-29T13:39:53.038Z,1.90
2022-07-29T13:42:20.669Z,1.70
2022-07-29T13:44:49.634Z,1.45
2022-07-29T13:47:17.195Z,1.70
2022-07-29T13:49:44.352Z,1.58
2022-07-29T13:52:11.386Z,1.48
2022-07-29T13:54:42.730Z,1.60
2022-07-29T13:57:13.718Z,1.40
2022-07-29T13:59:42.925Z,1.60
2022-07-29T14:02:11.169Z,1.60
2022-07-29T14:04:39.680Z,1.58
2022-07-29T14:07:07.241Z,1.60
2022-07-29T14:09:41.546Z,1.38
2022-07-29T14:12:09.283Z,1.15
2022-07-29T14:14:37.639Z,1.80
2022-07-29T14:17:07.602Z,1.92
2022-07-29T14:19:39.798Z,1.83
2022-07-29T14:22:08.568Z,1.77
2022-07-29T14:24:37.292Z,1.60
2022-07-29T14:27:06.259Z,1.65
2022-07-29T14:29:37.073Z,1.33
2022-07-29T14:32:10.031Z,1.57
2022-07-29T14:34:40.553Z,1.80
2022-07-29T14:37:08.020Z,1.73
2022-07-29T14:39:42.296Z,1.63
2022-07-29T14:42:10.077Z,1.60
2022-07-29T14:44:39.256Z,1.50
2022-07-29T14:47:07.419Z,1.42
2022-07-29T14:49:35.375Z,1.60
2022-07-29T14:52:02.224Z,1.45
2022-07-29T14:54:29.079Z,1.95
2022-07-29T14:56:58.260Z,1.60
2022-07-29T14:59:26.603Z,2.25
2022-07-29T15:01:53.779Z,1.55
2022-07-29T15:04:21.119Z,2.47
2022-07-29T15:06:48.300Z,1.30
2022-07-29T15:09:15.273Z,1.50
2022-07-29T15:11:42.208Z,1.50
2022-07-29T15:14:09.312Z,1.70
2022-07-29T15:16:41.964Z,1.13
2022-07-29T15:19:11.242Z,1.30
2022-07-29T15:21:41.717Z,1.20
2022-07-29T15:24:15.311Z,2.03
2022-07-29T15:26:43.467Z,1.80
2022-07-29T15:29:10.609Z,1.23
2022-07-29T15:31:37.542Z,1.40
2022-07-29T15:34:05.873Z,1.90
2022-07-29T15:36:51.418Z,1.40
2022-07-29T15:39:20.462Z,2.10
2022-07-29T15:41:47.364Z,1.30
2022-07-29T15:44:14.321Z,1.30
2022-07-29T15:47:00.586Z,1.40
2022-07-29T15:49:47.915Z,1.40
2022-07-29T15:52:25.720Z,1.40
2022-07-29T15:54:57.066Z,1.40
2022-07-29T15:57:24.641Z,1.40
2022-07-29T15:59:52.018Z,1.40
2022-07-29T16:02:19.059Z,1.77
2022-07-29T16:04:46.007Z,1.47
2022-07-29T16:07:12.799Z,1.17
2022-07-29T16:09:41.482Z,1.27
2022-07-29T16:12:13.679Z,2.40
2022-07-29T16:14:43.382Z,6.70
2022-07-29T16:17:10.324Z,7.07
2022-07-29T16:19:43.225Z,6.27
2022-07-29T16:22:10.727Z,6.97
2022-07-29T16:24:39.045Z,9.60
2022-07-29T16:27:06.390Z,4.50
2022-07-29T16:29:33.449Z,2.38
2022-07-29T16:32:01.384Z,1.50
2022-07-29T16:34:28.369Z,1.67
2022-07-29T16:36:55.201Z,1.63
2022-07-29T16:39:22.106Z,2.27
2022-07-29T16:41:48.930Z,2.10
2022-07-29T16:44:16.063Z,1.90
2022-07-29T16:46:46.270Z,1.70
2022-07-29T16:49:19.401Z,1.80
2022-07-29T16:51:47.837Z,1.73
2022-07-29T16:54:14.830Z,1.70
2022-07-29T16:56:41.759Z,2.10
2022-07-29T16:59:08.826Z,1.90
2022-07-29T17:01:35.642Z,1.27
2022-07-29T17:04:08.647Z,1.80
2022-07-29T17:06:40.567Z,1.70
2022-07-29T17:09:10.033Z,2.07
2022-07-29T17:11:53.568Z,2.10
2022-07-29T17:14:28.215Z,2.93
2022-07-29T17:17:01.195Z,2.13
2022-07-29T17:19:34.199Z,1.73
2022-07-29T17:22:11.631Z,2.20
2022-07-29T17:24:41.092Z,2.30
2022-07-29T17:27:08.778Z,3.20
2022-07-29T17:29:35.709Z,4.10
2022-07-29T17:32:03.585Z,2.50
2022-07-29T17:34:30.635Z,2.80
2022-07-29T17:36:57.878Z,3.00
2022-07-29T17:39:25.021Z,2.10
2022-07-29T17:41:52.103Z,2.13
2022-07-29T17:44:18.954Z,1.90
2022-07-29T17:46:45.873Z,1.77
2022-07-29T17:49:13.035Z,1.70
2022-07-29T17:51:40.024Z,1.43
2022-07-29T17:54:06.792Z,2.10
2022-07-29T17:56:33.904Z,2.00
2022-07-29T17:59:03.648Z,1.57
2022-07-29T18:01:30.584Z,1.60
2022-07-29T18:04:00.191Z,1.40
2022-07-29T18:06:27.263Z,1.50
2022-07-29T18:08:55.437Z,2.17
2022-07-29T18:11:23.842Z,1.40
2022-07-29T18:13:50.991Z,1.53
2022-07-29T18:16:18.479Z,1.70
2022-07-29T18:18:45.760Z,1.40
2022-07-29T18:21:13.011Z,1.60
2022-07-29T18:23:39.999Z,1.97
2022-07-29T18:26:06.852Z,1.60
2022-07-29T18:28:34.215Z,1.87
2022-07-29T18:31:02.526Z,2.00
2022-07-29T18:33:29.617Z,1.63
2022-07-29T18:36:10.782Z,1.67
2022-07-29T18:38:40.092Z,1.57
2022-07-29T18:41:07.333Z,1.20
2022-07-29T18:43:34.291Z,1.43
2022-07-29T18:46:05.966Z,1.50
2022-07-29T18:48:34.177Z,1.83
2022-07-29T18:51:01.862Z,1.33
2022-07-29T18:53:28.774Z,1.50
2022-07-29T18:56:00.231Z,1.27
2022-07-29T18:58:27.604Z,1.50
2022-07-29T19:00:54.508Z,1.50
2022-07-29T19:03:21.423Z,1.47
2022-07-29T19:05:48.499Z,1.40
2022-07-29T19:08:15.721Z,1.83
2022-07-29T19:10:42.956Z,1.20
2022-07-29T19:13:09.828Z,1.30
2022-07-29T19:15:40.579Z,1.50
2022-07-29T19:18:07.454Z,1.70
2022-07-29T19:20:34.525Z,1.20
2022-07-29T19:23:01.736Z,1.50
2022-07-29T19:25:28.767Z,1.37
2022-07-29T19:27:57.042Z,1.10
2022-07-29T19:30:24.044Z,1.50
2022-07-29T19:32:51.121Z,1.30
2022-07-29T19:35:24.793Z,1.40
2022-07-29T19:37:52.999Z,1.53
2022-07-29T19:40:20.417Z,1.53
2022-07-29T19:42:52.921Z,1.50
2022-07-29T19:45:26.556Z,1.57
2022-07-29T19:47:57.708Z,1.60
2022-07-29T19:50:28.091Z,1.27
2022-07-29T19:52:55.083Z,1.83
2022-07-29T19:55:23.464Z,1.43
2022-07-29T19:57:52.694Z,1.60
2022-07-29T20:00:21.207Z,1.90
2022-07-29T20:02:48.393Z,1.43
2022-07-29T20:05:15.533Z,1.50
2022-07-29T20:07:42.393Z,2.30
2022-07-29T20:10:09.973Z,1.90
2022-07-29T20:12:38.055Z,1.80
2022-07-29T20:15:07.204Z,1.60
2022-07-29T20:17:39.731Z,1.70
2022-07-29T20:20:08.826Z,1.43
2022-07-29T20:22:36.812Z,1.87
2022-07-29T20:25:04.837Z,1.80
2022-07-29T20:27:31.815Z,1.93
2022-07-29T20:29:58.897Z,1.90
2022-07-29T20:32:25.727Z,1.80
2022-07-29T20:34:52.759Z,1.53
2022-07-29T20:37:20.638Z,1.57
2022-07-29T20:39:50.557Z,1.77
2022-07-29T20:42:17.832Z,2.00
2022-07-29T20:44:49.443Z,1.60
2022-07-29T20:47:16.808Z,2.47
2022-07-29T20:49:43.864Z,1.93
2022-07-29T20:52:11.048Z,2.20
2022-07-29T20:54:38.248Z,1.90
2022-07-29T20:57:05.564Z,2.60
2022-07-29T20:59:33.581Z,1.80
2022-07-29T21:02:00.594Z,1.70
2022-07-29T21:04:30.703Z,2.90
2022-07-29T21:06:58.546Z,2.30
2022-07-29T21:09:26.060Z,2.00
2022-07-29T21:11:53.326Z,2.27
2022-07-29T21:14:35.564Z,2.30
2022-07-29T21:17:05.784Z,2.47
2022-07-29T21:19:33.034Z,2.30
2022-07-29T21:22:00.096Z,2.57
2022-07-29T21:24:27.012Z,2.17
2022-07-29T21:27:20.746Z,2.20
2022-07-29T21:29:51.952Z,2.30
2022-07-29T21:32:29.809Z,2.47
2022-07-29T21:34:58.338Z,2.53
2022-07-29T21:37:28.349Z,2.43
2022-07-29T21:39:55.101Z,2.37
2022-07-29T21:42:21.939Z,2.43
2022-07-29T21:44:49.002Z,2.47
2022-07-29T21:47:15.988Z,2.40
2022-07-29T21:49:43.380Z,2.93
2022-07-29T21:52:10.264Z,3.10
2022-07-29T21:54:38.406Z,2.53
2022-07-29T21:57:05.742Z,2.30
2022-07-29T21:59:32.755Z,3.13
2022-07-29T22:02:02.865Z,2.60
2022-07-29T22:04:30.599Z,2.73
2022-07-29T22:06:58.511Z,3.17
2022-07-29T22:09:25.978Z,3.00
2022-07-29T22:11:53.251Z,3.23
2022-07-29T22:14:20.383Z,3.23
2022-07-29T22:16:48.351Z,3.23
2022-07-29T22:19:15.594Z,2.87
2022-07-29T22:21:42.617Z,2.90
2022-07-29T22:24:12.881Z,3.20
2022-07-29T22:26:39.884Z,3.40
2022-07-29T22:29:06.912Z,3.20
2022-07-29T22:31:34.440Z,3.37
2022-07-29T22:34:01.372Z,3.77
2022-07-29T22:36:31.143Z,3.70
2022-07-29T22:39:01.059Z,3.97
2022-07-29T22:41:28.053Z,3.13
2022-07-29T22:43:54.924Z,3.83
2022-07-29T22:46:23.509Z,3.57
2022-07-29T22:48:50.761Z,3.50
2022-07-29T22:51:17.836Z,3.90
2022-07-29T22:53:47.950Z,4.37
2022-07-29T22:56:15.431Z,4.07
2022-07-29T22:58:42.601Z,4.10
2022-07-29T23:01:09.612Z,4.67
2022-07-29T23:03:36.895Z,5.10
2022-07-29T23:06:04.053Z,4.07
2022-07-29T23:08:31.435Z,5.20
2022-07-29T23:10:58.445Z,4.77
2022-07-29T23:13:25.314Z,4.40
2022-07-29T23:15:52.447Z,4.13
2022-07-29T23:18:19.453Z,4.43
2022-07-29T23:20:46.433Z,4.67
2022-07-29T23:23:13.354Z,5.40
2022-07-29T23:25:40.313Z,4.13
2022-07-29T23:28:11.547Z,5.30
2022-07-29T23:30:40.777Z,4.83
2022-07-29T23:33:07.817Z,4.40
2022-07-29T23:35:35.059Z,4.90
2022-07-29T23:38:02.322Z,5.83
2022-07-29T23:40:29.391Z,5.30
2022-07-29T23:42:56.277Z,5.50
2022-07-29T23:45:42.874Z,5.90
2022-07-29T23:48:12.429Z,5.50
2022-07-29T23:50:42.644Z,6.27
2022-07-29T23:53:09.687Z,6.03
2022-07-29T23:55:39.297Z,6.80
2022-07-29T23:58:08.641Z,6.00
